Terminal Aerodrome Forecast
Issued by NWS Norman, OK

Home | Current Version | Previous Version | Text Only | Print | Product List | Glossary On
Versions: 1 2 3 4 5 6 7 8 9 10 11 12 13 14 15 16 17 18 19 20 21 22 23 24 25 26 27 28 29 30 31 32 33
000
FTUS44 KOUN 181727
TAFSPS
TAF
KSPS 181727Z 1818/1918 18012KT P6SM BKN030
     FM182000 17012KT P6SM BKN040
      TEMPO 1822/1902 3SM TSRA OVC030CB
     FM190300 15006KT P6SM BKN035
     FM190700 15007KT P6SM SCT035 SCT150
     FM191400 25010KT P6SM SCT150
     FM191700 34013KT P6SM SCT150=

USA.gov is the U.S. government's official web portal to all federal, state and local government web resources and services.